KQBF/QBF METAR and TAF weather

Enter ICAO airport designator
Station Type Date Time Source
KQBF METAR 2019/08/21 01:56 UTC NOAA

KQBF 210156Z AUTO 00000KT 9999 BKN230 24/22 A2993 RMK AO2 SLP092 WND DATA ESTMD T02420221


Station Type Date Time Source
KQBF Decoded METAR 2019/08/21 01:56 UTC NOAA

Station name not available
Aug 20, 2019 - 09:56 PM EDT / 2019.08.21 0156 UTC
Wind: Calm:0
Visibility: greater than 7 mile(s):0
Sky conditions: mostly cloudy
Temperature: 75.6 F (24.2 C)
Dew Point: 71.8 F (22.1 C)
Relative Humidity: 88%
Pressure (altimeter): 29.93 in. Hg (1013 hPa)
ob: KQBF 210156Z AUTO 00000KT 9999 BKN230 24/22 A2993 RMK AO2 SLP092 WND DATA ESTMD T02420221
cycle: 2

Station Type Date Time Source
KQBF TAF 2009/08/24 17:21 UTC NOAA

TAF
AMD KQBF 241721Z 241313 06010G20KT 9999 FEW025 SCT160 BKN230 QNH2915INS
BECMG 2223 100020G25KT 9000 -SHRA SCT009 BKN025 OVC035 610505 QNH2910INS
TEMPO 0209 10025G35KT BKN010
BECMG 1213 09020G25KT 9000 -SHRA SCT015 BKN035 OVC050 610606 T11/15Z T10/00Z
AMD 241744 LIMITED METWATCH 2417 TIL 2507

Example: see airport list